createdAt,value
2023-02-01T00:00:59.818Z,4.00
2023-02-01T00:03:27.184Z,2.83
2023-02-01T00:06:00.514Z,3.33
2023-02-01T00:08:28.095Z,2.85
2023-02-01T00:11:09.686Z,3.60
2023-02-01T00:13:41.184Z,3.10
2023-02-01T00:16:09.771Z,2.63
2023-02-01T00:18:36.503Z,3.25
2023-02-01T00:21:03.374Z,2.55
2023-02-01T00:23:34.086Z,2.83
2023-02-01T00:26:05.746Z,2.20
2023-02-01T00:28:33.109Z,3.33
2023-02-01T00:31:01.576Z,2.97
2023-02-01T00:33:29.146Z,1.90
2023-02-01T00:36:06.306Z,1.85
2023-02-01T00:38:37.120Z,2.67
2023-02-01T00:41:08.893Z,2.25
2023-02-01T00:43:36.638Z,2.22
2023-02-01T00:46:03.964Z,2.05
2023-02-01T00:48:31.142Z,2.25
2023-02-01T00:51:09.104Z,2.63
2023-02-01T00:53:36.181Z,1.83
2023-02-01T00:56:02.871Z,2.13
2023-02-01T00:58:29.535Z,1.45
2023-02-01T01:01:12.814Z,2.30
2023-02-01T01:03:41.977Z,1.77
2023-02-01T01:06:11.439Z,2.10
2023-02-01T01:08:38.713Z,1.63
2023-02-01T01:11:07.587Z,1.40
2023-02-01T01:13:34.685Z,1.98
2023-02-01T01:16:03.719Z,2.47
2023-02-01T01:18:32.011Z,1.65
2023-02-01T01:20:58.633Z,1.60
2023-02-01T01:23:25.554Z,2.40
2023-02-01T01:25:53.044Z,2.28
2023-02-01T01:28:20.126Z,1.77
2023-02-01T01:30:46.613Z,1.90
2023-02-01T01:33:13.235Z,1.45
2023-02-01T01:35:39.787Z,2.83
2023-02-01T01:38:06.481Z,2.40
2023-02-01T01:40:33.304Z,2.58
2023-02-01T01:43:00.284Z,2.60
2023-02-01T01:45:26.802Z,2.42
2023-02-01T01:47:57.142Z,2.20
2023-02-01T01:50:34.777Z,1.85
2023-02-01T01:53:04.297Z,1.77
2023-02-01T01:55:34.666Z,1.90
2023-02-01T01:58:09.389Z,3.15
2023-02-01T02:00:36.170Z,2.13
2023-02-01T02:03:24.998Z,1.75
2023-02-01T02:05:54.779Z,2.10
2023-02-01T02:08:22.480Z,2.05
2023-02-01T02:11:01.715Z,2.08
2023-02-01T02:13:43.664Z,2.08
2023-02-01T02:16:27.004Z,1.90
2023-02-01T02:19:18.144Z,2.25
2023-02-01T02:22:06.472Z,1.63
2023-02-01T02:24:35.947Z,2.90
2023-02-01T02:27:24.619Z,2.28
2023-02-01T02:30:38.238Z,1.73
2023-02-01T02:33:36.831Z,2.50
2023-02-01T02:36:19.015Z,2.35
2023-02-01T02:38:59.590Z,1.63
2023-02-01T02:41:53.296Z,2.28
2023-02-01T02:44:51.552Z,2.92
2023-02-01T02:47:28.556Z,2.50
2023-02-01T02:50:30.162Z,2.05
2023-02-01T02:53:37.240Z,2.25
2023-02-01T02:56:25.709Z,2.42
2023-02-01T02:59:11.565Z,2.85
2023-02-01T03:01:58.936Z,1.98
2023-02-01T03:04:26.457Z,1.88
2023-02-01T03:06:54.788Z,2.20
2023-02-01T03:09:36.321Z,1.75
2023-02-01T03:12:28.670Z,2.05
2023-02-01T03:15:01.425Z,1.42
2023-02-01T03:17:34.717Z,2.42
2023-02-01T03:20:04.508Z,1.73
2023-02-01T03:22:32.860Z,1.95
2023-02-01T03:25:05.737Z,1.60
2023-02-01T03:27:37.819Z,1.85
2023-02-01T03:30:33.047Z,1.73
2023-02-01T03:33:03.603Z,1.92
2023-02-01T03:35:50.965Z,1.85
2023-02-01T03:38:25.999Z,1.63
2023-02-01T03:41:01.480Z,2.70
2023-02-01T03:43:33.494Z,1.90
2023-02-01T03:46:05.323Z,1.67
2023-02-01T03:48:33.101Z,2.10
2023-02-01T03:51:04.314Z,1.38
2023-02-01T03:53:32.513Z,1.90
2023-02-01T03:55:59.269Z,2.03
2023-02-01T03:58:25.867Z,2.40
2023-02-01T04:00:59.734Z,1.75
2023-02-01T04:03:28.883Z,1.88
2023-02-01T04:05:56.858Z,2.38
2023-02-01T04:08:26.984Z,1.70
2023-02-01T04:10:53.490Z,2.63
2023-02-01T04:13:20.031Z,2.15
2023-02-01T04:15:50.605Z,1.63
2023-02-01T04:18:17.447Z,2.47
2023-02-01T04:20:44.860Z,2.35
2023-02-01T04:23:11.375Z,1.60
2023-02-01T04:25:37.833Z,3.08
2023-02-01T04:28:05.662Z,2.70
2023-02-01T04:30:32.171Z,2.08
2023-02-01T04:32:58.720Z,1.80
2023-02-01T04:35:25.181Z,2.38
2023-02-01T04:37:51.731Z,1.90
2023-02-01T04:40:18.248Z,1.92
2023-02-01T04:42:44.822Z,2.10
2023-02-01T04:45:11.641Z,1.83
2023-02-01T04:47:38.368Z,3.10
2023-02-01T04:50:06.642Z,2.00
2023-02-01T04:52:33.851Z,1.88
2023-02-01T04:55:01.208Z,2.05
2023-02-01T04:57:27.810Z,2.67
2023-02-01T04:59:54.317Z,2.30
2023-02-01T05:02:21.044Z,3.03
2023-02-01T05:04:47.634Z,2.47
2023-02-01T05:07:14.276Z,2.33
2023-02-01T05:09:40.798Z,2.55
2023-02-01T05:12:26.221Z,2.72
2023-02-01T05:14:52.997Z,1.90
2023-02-01T05:17:19.503Z,1.75
2023-02-01T05:19:46.074Z,2.47
2023-02-01T05:22:12.607Z,1.70
2023-02-01T05:24:39.171Z,2.28
2023-02-01T05:27:05.660Z,2.58
2023-02-01T05:29:32.418Z,2.20
2023-02-01T05:32:05.264Z,1.73
2023-02-01T05:34:38.344Z,1.50
2023-02-01T05:37:04.805Z,1.88
2023-02-01T05:39:31.336Z,2.05
2023-02-01T05:41:57.822Z,2.67
2023-02-01T05:44:24.357Z,2.38
2023-02-01T05:46:53.174Z,3.13
2023-02-01T05:49:19.729Z,2.72
2023-02-01T05:51:46.516Z,2.08
2023-02-01T05:54:13.335Z,2.50
2023-02-01T05:56:41.633Z,1.98
2023-02-01T05:59:08.704Z,2.33
2023-02-01T06:01:35.220Z,2.45
2023-02-01T06:04:01.869Z,2.05
2023-02-01T06:06:28.405Z,2.90
2023-02-01T06:08:55.047Z,2.05
2023-02-01T06:11:32.329Z,1.88
2023-02-01T06:13:59.618Z,2.38
2023-02-01T06:16:26.280Z,1.42
2023-02-01T06:18:52.917Z,2.17
2023-02-01T06:21:24.541Z,1.48
2023-02-01T06:23:52.664Z,2.47
2023-02-01T06:26:19.523Z,1.73
2023-02-01T06:28:46.532Z,3.03
2023-02-01T06:31:13.560Z,2.03
2023-02-01T06:33:40.739Z,2.30
2023-02-01T06:36:10.786Z,1.67
2023-02-01T06:38:37.462Z,2.05
2023-02-01T06:41:04.731Z,1.98
2023-02-01T06:43:33.458Z,2.40
2023-02-01T06:46:02.176Z,2.10
2023-02-01T06:48:28.779Z,1.85
2023-02-01T06:50:55.713Z,3.55
2023-02-01T06:53:22.316Z,2.47
2023-02-01T06:55:56.497Z,1.80
2023-02-01T06:58:23.793Z,1.48
2023-02-01T07:00:51.240Z,1.83
2023-02-01T07:03:17.844Z,2.97
2023-02-01T07:05:44.331Z,2.65
2023-02-01T07:08:10.907Z,2.70
2023-02-01T07:10:38.368Z,2.28
2023-02-01T07:13:05.653Z,2.53
2023-02-01T07:15:32.163Z,2.15
2023-02-01T07:17:58.735Z,1.15
2023-02-01T07:20:25.537Z,2.10
2023-02-01T07:22:58.371Z,1.48
2023-02-01T07:25:25.131Z,2.33
2023-02-01T07:27:51.642Z,1.90
2023-02-01T07:30:18.616Z,2.67
2023-02-01T07:32:45.217Z,1.77
2023-02-01T07:35:11.824Z,2.25
2023-02-01T07:37:38.413Z,2.60
2023-02-01T07:40:05.846Z,1.80
2023-02-01T07:42:32.713Z,2.05
2023-02-01T07:45:07.867Z,2.70
2023-02-01T07:47:41.795Z,2.10
2023-02-01T07:50:09.053Z,2.13
2023-02-01T07:52:35.633Z,1.75
2023-02-01T07:55:02.136Z,3.20
2023-02-01T07:57:28.727Z,2.72
2023-02-01T08:00:13.921Z,2.25
2023-02-01T08:02:41.655Z,1.52
2023-02-01T08:05:08.703Z,2.85
2023-02-01T08:07:35.257Z,2.90
2023-02-01T08:10:02.017Z,2.22
2023-02-01T08:12:28.552Z,2.13
2023-02-01T08:14:57.279Z,2.20
2023-02-01T08:17:24.012Z,2.33
2023-02-01T08:19:50.571Z,3.45
2023-02-01T08:22:17.312Z,3.22
2023-02-01T08:24:43.783Z,3.00
2023-02-01T08:27:10.421Z,2.03
2023-02-01T08:29:37.131Z,2.50
2023-02-01T08:32:04.103Z,2.30
2023-02-01T08:34:30.655Z,2.35
2023-02-01T08:37:01.104Z,2.05
2023-02-01T08:39:27.895Z,2.03
2023-02-01T08:42:13.158Z,3.58
2023-02-01T08:44:39.741Z,2.03
2023-02-01T08:47:06.227Z,2.78
2023-02-01T08:49:32.979Z,2.72
2023-02-01T08:52:04.043Z,2.17
2023-02-01T08:54:33.699Z,2.30
2023-02-01T08:57:00.428Z,1.95
2023-02-01T08:59:28.660Z,3.45
2023-02-01T09:01:57.047Z,2.33
2023-02-01T09:04:23.716Z,3.05
2023-02-01T09:06:50.386Z,2.08
2023-02-01T09:09:16.906Z,2.55
2023-02-01T09:11:43.495Z,2.80
2023-02-01T09:14:10.005Z,3.10
2023-02-01T09:16:36.532Z,2.80
2023-02-01T09:19:24.441Z,3.15
2023-02-01T09:21:49.572Z,3.40
2023-02-01T09:24:16.170Z,2.17
2023-02-01T09:26:43.136Z,2.35
2023-02-01T09:29:12.301Z,1.77
2023-02-01T09:31:44.169Z,4.40
2023-02-01T09:34:13.840Z,2.72
2023-02-01T09:36:40.426Z,2.45
2023-02-01T09:39:07.132Z,2.70
2023-02-01T09:41:40.130Z,1.92
2023-02-01T09:44:27.661Z,2.10
2023-02-01T09:47:00.694Z,3.00
2023-02-01T09:49:31.420Z,3.53
2023-02-01T09:51:59.939Z,3.25
2023-02-01T09:54:30.918Z,2.60
2023-02-01T09:57:24.231Z,2.47
2023-02-01T10:00:01.487Z,2.67
2023-02-01T10:02:29.527Z,2.17
2023-02-01T10:05:01.726Z,3.28
2023-02-01T10:07:50.071Z,2.85
2023-02-01T10:10:32.055Z,2.75
2023-02-01T10:13:28.390Z,3.63
2023-02-01T10:16:17.794Z,2.05
2023-02-01T10:18:47.100Z,2.67
2023-02-01T10:21:40.526Z,3.10
2023-02-01T10:24:26.052Z,2.78
2023-02-01T10:27:02.701Z,2.15
2023-02-01T10:29:38.637Z,3.22
2023-02-01T10:32:14.150Z,2.53
2023-02-01T10:34:41.852Z,2.40
2023-02-01T10:37:20.302Z,3.95
2023-02-01T10:39:50.894Z,2.45
2023-02-01T10:42:21.173Z,2.13
2023-02-01T10:44:49.051Z,2.42
2023-02-01T10:47:16.673Z,3.00
2023-02-01T10:50:06.174Z,3.00
2023-02-01T10:52:55.037Z,1.98
2023-02-01T10:55:39.375Z,2.75
2023-02-01T10:58:18.295Z,2.72
2023-02-01T11:00:48.221Z,2.67
2023-02-01T11:03:57.033Z,2.45
2023-02-01T11:06:36.567Z,2.28
2023-02-01T11:09:09.190Z,2.50
2023-02-01T11:11:57.624Z,2.55
2023-02-01T11:14:40.087Z,3.65
2023-02-01T11:17:15.974Z,2.65
2023-02-01T11:19:47.035Z,2.53
2023-02-01T11:22:14.949Z,2.97
2023-02-01T11:24:47.067Z,2.45
2023-02-01T11:27:27.636Z,2.50
2023-02-01T11:30:00.986Z,1.80
2023-02-01T11:32:28.291Z,1.92
2023-02-01T11:35:05.381Z,1.85
2023-02-01T11:37:37.887Z,2.75
2023-02-01T11:40:26.347Z,2.33
2023-02-01T11:43:15.104Z,2.20
2023-02-01T11:45:41.721Z,1.98
2023-02-01T11:48:26.303Z,2.85
2023-02-01T11:51:11.981Z,1.90
2023-02-01T11:54:06.233Z,2.87
2023-02-01T11:56:38.580Z,1.48
2023-02-01T11:59:08.074Z,2.22
2023-02-01T12:02:01.587Z,1.92
2023-02-01T12:04:45.509Z,2.05
2023-02-01T12:07:30.600Z,2.22
2023-02-01T12:10:17.542Z,1.83
2023-02-01T12:13:41.819Z,2.33
2023-02-01T12:16:23.117Z,2.03
2023-02-01T12:19:28.693Z,2.08
2023-02-01T12:22:31.813Z,2.15
2023-02-01T12:25:21.603Z,2.63
2023-02-01T12:28:24.505Z,1.92
2023-02-01T12:31:24.641Z,2.60
2023-02-01T12:33:58.073Z,1.88
2023-02-01T12:36:44.836Z,2.35
2023-02-01T12:39:18.924Z,2.13
2023-02-01T12:42:00.919Z,2.72
2023-02-01T12:44:35.678Z,2.10
2023-02-01T12:47:10.915Z,1.80
2023-02-01T12:49:56.598Z,2.58
2023-02-01T12:52:38.536Z,1.58
2023-02-01T12:55:50.601Z,1.48
2023-02-01T12:58:23.773Z,1.98
2023-02-01T13:01:00.588Z,2.25
2023-02-01T13:03:40.278Z,1.90
2023-02-01T13:06:16.680Z,2.55
2023-02-01T13:08:51.628Z,1.33
2023-02-01T13:11:40.340Z,1.60
2023-02-01T13:14:26.180Z,1.55
2023-02-01T13:19:30.410Z,1.67
2023-02-01T13:22:08.898Z,2.28
2023-02-01T13:24:44.405Z,1.92
2023-02-01T13:27:13.831Z,1.20
2023-02-01T13:29:49.715Z,1.42
2023-02-01T13:33:51.434Z,1.83
2023-02-01T13:35:50.408Z,2.05
2023-02-01T13:38:47.981Z,1.33
2023-02-01T13:41:16.467Z,1.52
2023-02-01T13:43:48.800Z,2.15
2023-02-01T13:46:17.015Z,1.38
2023-02-01T13:48:58.239Z,1.70
2023-02-01T13:51:44.976Z,2.20
2023-02-01T13:54:43.813Z,1.60
2023-02-01T13:57:38.709Z,1.90
2023-02-01T14:00:31.405Z,1.92
2023-02-01T14:03:01.444Z,2.35
2023-02-01T14:05:28.117Z,2.47
2023-02-01T14:08:06.407Z,2.55
2023-02-01T14:10:59.148Z,1.65
2023-02-01T14:13:54.839Z,3.50
2023-02-01T14:16:21.488Z,1.65
2023-02-01T14:18:59.536Z,1.80
2023-02-01T14:21:31.988Z,1.92
2023-02-01T14:24:02.058Z,1.40
2023-02-01T14:26:34.706Z,1.67
2023-02-01T14:29:18.619Z,1.85
2023-02-01T14:32:16.519Z,1.95
2023-02-01T14:34:49.505Z,1.55
2023-02-01T14:37:19.394Z,1.45
2023-02-01T14:39:46.045Z,2.03
2023-02-01T14:42:27.798Z,2.08
2023-02-01T14:44:59.282Z,2.08
2023-02-01T14:47:29.971Z,2.05
2023-02-01T14:50:03.262Z,1.95
2023-02-01T14:52:39.195Z,1.83
2023-02-01T14:55:11.113Z,1.98
2023-02-01T14:57:41.319Z,2.35
2023-02-01T15:00:29.607Z,1.80
2023-02-01T15:03:18.448Z,1.55
2023-02-01T15:05:45.229Z,1.20
2023-02-01T15:08:20.142Z,1.50
2023-02-01T15:10:51.005Z,1.77
2023-02-01T15:13:26.568Z,2.17
2023-02-01T15:18:33.733Z,1.52
2023-02-01T15:21:26.840Z,1.63
2023-02-01T15:23:49.682Z,1.30
2023-02-01T15:26:27.747Z,1.33
2023-02-01T15:28:54.509Z,2.10
2023-02-01T15:31:36.578Z,1.73
2023-02-01T15:34:04.051Z,1.73
2023-02-01T15:36:32.667Z,1.33
2023-02-01T15:39:20.687Z,2.20
2023-02-01T15:41:50.037Z,2.17
2023-02-01T15:44:27.676Z,2.17
2023-02-01T15:46:54.408Z,1.77
2023-02-01T15:49:31.845Z,1.60
2023-02-01T15:52:01.626Z,2.00
2023-02-01T15:54:59.183Z,1.30
2023-02-01T15:57:34.031Z,1.35
2023-02-01T16:00:08.709Z,2.17
2023-02-01T16:02:54.096Z,1.65
2023-02-01T16:05:36.685Z,1.67
2023-02-01T16:08:05.644Z,1.40
2023-02-01T16:10:38.567Z,2.03
2023-02-01T16:13:05.082Z,2.20
2023-02-01T16:15:31.885Z,1.65
2023-02-01T16:17:58.609Z,1.85
2023-02-01T16:20:25.413Z,2.05
2023-02-01T16:22:51.991Z,1.60
2023-02-01T16:25:18.626Z,1.77
2023-02-01T16:27:45.350Z,1.58
2023-02-01T16:30:12.462Z,2.65
2023-02-01T16:32:39.646Z,1.58
2023-02-01T16:35:19.905Z,2.65
2023-02-01T16:37:46.520Z,1.77
2023-02-01T16:40:17.660Z,1.98
2023-02-01T16:42:44.267Z,1.67
2023-02-01T16:45:10.957Z,1.70
2023-02-01T16:47:39.379Z,1.55
2023-02-01T16:50:23.100Z,2.13
2023-02-01T16:52:50.938Z,1.23
2023-02-01T16:55:20.380Z,1.23
2023-02-01T16:57:46.935Z,0.80
2023-02-01T17:00:24.114Z,0.90
2023-02-01T17:02:52.566Z,1.30
2023-02-01T17:05:19.184Z,0.63
2023-02-01T17:07:46.281Z,0.77
2023-02-01T17:10:36.986Z,0.60
2023-02-01T17:13:03.719Z,0.57
2023-02-01T17:15:35.490Z,0.85
2023-02-01T17:18:03.210Z,1.23
2023-02-01T17:20:32.899Z,0.57
2023-02-01T17:22:59.956Z,0.70
2023-02-01T17:25:28.488Z,0.82
2023-02-01T17:27:55.130Z,0.60
2023-02-01T17:30:21.968Z,1.35
2023-02-01T17:32:48.706Z,1.10
2023-02-01T17:35:22.292Z,0.80
2023-02-01T17:37:50.189Z,1.40
2023-02-01T17:40:17.760Z,1.38
2023-02-01T17:42:44.981Z,0.70
2023-02-01T17:45:31.756Z,0.95
2023-02-01T17:47:58.445Z,1.65
2023-02-01T17:50:28.242Z,0.98
2023-02-01T17:52:54.851Z,1.02
2023-02-01T17:55:24.871Z,1.48
2023-02-01T17:57:51.716Z,1.40
2023-02-01T18:00:19.346Z,1.52
2023-02-01T18:02:46.285Z,1.33
2023-02-01T18:05:22.425Z,1.50
2023-02-01T18:07:49.602Z,1.52
2023-02-01T18:10:17.673Z,1.42
2023-02-01T18:12:45.203Z,1.38
2023-02-01T18:15:21.875Z,2.35
2023-02-01T18:17:49.165Z,1.45
2023-02-01T18:20:22.347Z,1.88
2023-02-01T18:22:49.602Z,1.02
2023-02-01T18:25:27.968Z,0.82
2023-02-01T18:27:57.102Z,0.80
2023-02-01T18:30:30.617Z,0.90
2023-02-01T18:32:57.462Z,0.75
2023-02-01T18:35:28.786Z,0.50
2023-02-01T18:37:56.475Z,0.70
2023-02-01T18:40:29.977Z,0.73
2023-02-01T18:42:58.053Z,0.90
2023-02-01T18:45:41.562Z,0.70
2023-02-01T18:48:10.218Z,0.60
2023-02-01T18:50:38.510Z,0.95
2023-02-01T18:53:07.869Z,0.95
2023-02-01T18:55:34.522Z,1.10
2023-02-01T18:58:03.413Z,0.80
2023-02-01T19:00:30.293Z,0.95
2023-02-01T19:02:56.925Z,1.13
2023-02-01T19:05:24.094Z,1.52
2023-02-01T19:07:50.962Z,1.38
2023-02-01T19:10:22.056Z,1.05
2023-02-01T19:12:50.474Z,1.73
2023-02-01T19:15:18.238Z,1.25
2023-02-01T19:17:46.848Z,1.23
2023-02-01T19:20:15.867Z,1.25
2023-02-01T19:22:42.987Z,1.55
2023-02-01T19:25:14.525Z,2.08
2023-02-01T19:27:41.398Z,1.65
2023-02-01T19:30:12.658Z,1.77
2023-02-01T19:32:40.648Z,1.40
2023-02-01T19:35:08.337Z,1.58
2023-02-01T19:37:35.085Z,1.30
2023-02-01T19:40:01.927Z,1.73
2023-02-01T19:42:29.032Z,1.33
2023-02-01T19:44:55.627Z,2.15
2023-02-01T19:47:22.238Z,0.82
2023-02-01T19:49:48.829Z,0.93
2023-02-01T19:52:15.387Z,1.23
2023-02-01T19:54:41.939Z,0.93
2023-02-01T19:57:08.592Z,0.82
2023-02-01T19:59:35.286Z,0.70
2023-02-01T20:02:00.989Z,1.00
2023-02-01T20:04:27.546Z,0.50
2023-02-01T20:06:55.936Z,0.70
2023-02-01T20:09:26.731Z,0.80
2023-02-01T20:11:54.294Z,0.63
2023-02-01T20:14:21.934Z,0.55
2023-02-01T20:16:48.488Z,0.80
2023-02-01T20:19:15.627Z,1.60
2023-02-01T20:21:42.476Z,1.58
2023-02-01T20:24:13.100Z,1.27
2023-02-01T20:26:40.899Z,0.60
2023-02-01T20:29:07.540Z,1.15
2023-02-01T20:31:34.214Z,0.75
2023-02-01T20:34:01.711Z,1.20
2023-02-01T20:36:29.913Z,0.25
2023-02-01T20:38:57.366Z,0.98
2023-02-01T20:41:25.003Z,0.88
2023-02-01T20:43:51.569Z,1.00
2023-02-01T20:46:18.175Z,0.68
2023-02-01T20:48:47.068Z,0.38
2023-02-01T20:51:15.867Z,0.50
2023-02-01T20:53:43.075Z,1.13
2023-02-01T20:56:12.664Z,0.60
2023-02-01T20:58:39.761Z,1.17
2023-02-01T21:01:06.660Z,0.70
2023-02-01T21:03:34.890Z,1.17
2023-02-01T21:06:02.616Z,0.70
2023-02-01T21:08:29.946Z,1.02
2023-02-01T21:10:57.302Z,0.95
2023-02-01T21:13:25.733Z,0.95
2023-02-01T21:15:52.902Z,0.80
2023-02-01T21:18:19.767Z,1.42
2023-02-01T21:20:49.429Z,0.80
2023-02-01T21:23:17.044Z,1.00
2023-02-01T21:25:44.378Z,0.57
2023-02-01T21:28:11.768Z,0.57
2023-02-01T21:30:38.561Z,0.55
2023-02-01T21:33:05.858Z,1.15
2023-02-01T21:35:32.443Z,0.60
2023-02-01T21:37:59.326Z,1.48
2023-02-01T21:40:25.885Z,1.38
2023-02-01T21:42:52.543Z,0.60
2023-02-01T21:45:19.097Z,1.42
2023-02-01T21:47:45.666Z,0.52
2023-02-01T21:50:18.629Z,0.80
2023-02-01T21:52:45.785Z,0.60
2023-02-01T21:55:13.584Z,0.80
2023-02-01T21:57:40.636Z,0.77
2023-02-01T22:00:09.729Z,0.95
2023-02-01T22:02:36.404Z,1.58
2023-02-01T22:05:06.507Z,1.33
2023-02-01T22:07:35.948Z,0.70
2023-02-01T22:10:03.434Z,0.95
2023-02-01T22:12:29.951Z,0.90
2023-02-01T22:14:56.595Z,0.57
2023-02-01T22:17:23.087Z,1.00
2023-02-01T22:19:49.666Z,0.88
2023-02-01T22:22:16.674Z,1.00
2023-02-01T22:24:43.275Z,0.95
2023-02-01T22:27:14.362Z,0.80
2023-02-01T22:29:42.625Z,0.90
2023-02-01T22:32:09.493Z,1.20
2023-02-01T22:34:36.063Z,0.90
2023-02-01T22:37:03.020Z,1.00
2023-02-01T22:39:29.629Z,1.05
2023-02-01T22:41:56.121Z,0.73
2023-02-01T22:44:23.685Z,1.38
2023-02-01T22:46:50.479Z,0.73
2023-02-01T22:49:17.132Z,0.43
2023-02-01T22:51:43.999Z,0.65
2023-02-01T22:54:16.885Z,1.10
2023-02-01T22:56:43.555Z,0.63
2023-02-01T22:59:13.186Z,1.45
2023-02-01T23:01:40.070Z,0.80
2023-02-01T23:04:09.292Z,1.13
2023-02-01T23:06:36.123Z,0.70
2023-02-01T23:09:11.115Z,0.80
2023-02-01T23:11:38.793Z,0.80
2023-02-01T23:14:06.032Z,1.77
2023-02-01T23:16:32.778Z,0.60
2023-02-01T23:19:00.023Z,0.65
2023-02-01T23:21:26.684Z,0.80
2023-02-01T23:23:56.012Z,1.63
2023-02-01T23:26:25.921Z,1.20
2023-02-01T23:28:55.164Z,0.70
2023-02-01T23:31:30.668Z,0.68
2023-02-01T23:33:59.383Z,0.93
2023-02-01T23:36:27.534Z,0.90
2023-02-01T23:38:54.859Z,1.02
2023-02-01T23:41:22.954Z,0.75
2023-02-01T23:43:59.288Z,0.30
2023-02-01T23:46:28.998Z,0.70
2023-02-01T23:48:56.297Z,1.02
2023-02-01T23:51:23.910Z,0.90
2023-02-01T23:53:50.967Z,0.65
2023-02-01T23:56:22.315Z,0.85
2023-02-01T23:58:51.572Z,0.82
